createdAt,value
2017-12-26T00:10:20.206Z,991.65
2017-12-26T00:20:47.696Z,991.47
2017-12-26T00:31:14.560Z,991.20
2017-12-26T00:41:42.461Z,991.13
2017-12-26T00:52:09.889Z,991.03
2017-12-26T01:02:38.306Z,990.86
2017-12-26T01:13:04.739Z,990.91
2017-12-26T01:23:32.159Z,990.69
2017-12-26T01:33:59.543Z,990.46
2017-12-26T01:44:26.966Z,990.34
2017-12-26T01:54:54.475Z,990.22
2017-12-26T02:05:21.772Z,990.06
2017-12-26T02:15:49.212Z,989.87
2017-12-26T02:26:16.605Z,989.54
2017-12-26T02:36:44.138Z,989.35
2017-12-26T02:47:11.506Z,989.33
2017-12-26T02:57:38.970Z,989.09
2017-12-26T03:08:06.379Z,988.96
2017-12-26T03:18:33.953Z,988.80
2017-12-26T03:29:01.209Z,989.19
2017-12-26T03:39:28.614Z,989.52
2017-12-26T03:49:55.984Z,989.11
2017-12-26T04:00:23.267Z,988.45
2017-12-26T04:10:50.413Z,988.44
2017-12-26T04:21:17.006Z,988.13
2017-12-26T04:31:44.656Z,987.97
2017-12-26T04:42:11.652Z,988.14
2017-12-26T04:52:38.667Z,987.78
2017-12-26T05:03:05.688Z,986.90
2017-12-26T05:13:32.603Z,986.96
2017-12-26T05:23:59.593Z,986.20
2017-12-26T05:34:26.663Z,986.40
2017-12-26T05:44:53.740Z,985.37
2017-12-26T05:55:20.688Z,986.05
2017-12-26T06:05:47.865Z,985.31
2017-12-26T06:16:14.571Z,986.06
2017-12-26T06:26:42.220Z,986.00
2017-12-26T06:47:36.564Z,985.76
2017-12-26T06:58:03.206Z,985.58
2017-12-26T07:08:30.818Z,984.16
2017-12-26T07:18:58.019Z,984.76
2017-12-26T07:29:25.401Z,984.93
2017-12-26T07:39:53.630Z,985.55
2017-12-26T07:50:19.435Z,984.35
2017-12-26T08:00:46.776Z,984.65
2017-12-26T08:11:14.130Z,984.39
2017-12-26T08:21:41.538Z,983.82
2017-12-26T08:32:08.984Z,983.80
2017-12-26T08:42:37.004Z,983.56
2017-12-26T08:53:04.544Z,984.16
2017-12-26T09:03:32.148Z,984.07
2017-12-26T09:13:59.276Z,984.23
2017-12-26T09:24:26.874Z,983.66
2017-12-26T09:34:54.611Z,982.82
2017-12-26T09:45:22.913Z,984.06
2017-12-26T09:55:50.302Z,983.18
2017-12-26T10:06:18.274Z,983.92
2017-12-26T10:16:46.267Z,983.58
2017-12-26T10:27:14.684Z,982.93
2017-12-26T10:37:42.393Z,982.92
2017-12-26T10:48:10.480Z,982.77
2017-12-26T10:58:38.698Z,983.32
2017-12-26T11:09:06.935Z,983.96
2017-12-26T11:19:35.562Z,983.50
2017-12-26T11:30:19.877Z,984.19
2017-12-26T11:40:48.352Z,984.10
2017-12-26T11:51:16.436Z,984.31
2017-12-26T12:01:44.606Z,985.33
2017-12-26T12:12:12.631Z,984.47
2017-12-26T12:22:40.789Z,984.49
2017-12-26T12:33:08.931Z,984.29
2017-12-26T12:43:36.637Z,984.33
2017-12-26T12:54:05.494Z,984.55
2017-12-26T13:04:33.756Z,984.89
2017-12-26T13:15:02.297Z,985.25
2017-12-26T13:25:30.670Z,985.50
2017-12-26T13:35:59.896Z,985.93
2017-12-26T13:46:27.232Z,985.39
2017-12-26T13:56:55.402Z,986.14
2017-12-26T14:07:23.185Z,985.08
2017-12-26T14:17:51.384Z,985.57
2017-12-26T14:28:19.571Z,986.01
2017-12-26T14:38:47.713Z,985.41
2017-12-26T14:49:16.172Z,985.70
2017-12-26T14:59:43.664Z,985.83
2017-12-26T15:10:11.655Z,985.43
2017-12-26T15:20:39.577Z,985.69
2017-12-26T15:31:07.535Z,986.03
2017-12-26T15:41:35.922Z,986.26
2017-12-26T15:52:03.739Z,986.00
2017-12-26T16:02:31.841Z,985.44
2017-12-26T16:12:59.436Z,985.45
2017-12-26T16:23:27.303Z,985.68
2017-12-26T16:33:55.230Z,985.94
2017-12-26T16:44:23.064Z,985.68
2017-12-26T16:54:51.050Z,985.65
2017-12-26T17:05:19.097Z,985.67
2017-12-26T17:15:46.621Z,986.27
2017-12-26T17:26:14.422Z,985.58
2017-12-26T17:36:42.187Z,986.27
2017-12-26T17:47:09.936Z,985.62
2017-12-26T17:57:37.581Z,985.65
2017-12-26T18:08:05.263Z,985.35
2017-12-26T18:18:33.604Z,984.66
2017-12-26T18:39:27.988Z,985.22
2017-12-26T19:00:23.408Z,984.86
2017-12-26T19:10:50.626Z,984.02
2017-12-26T19:21:17.944Z,983.79
2017-12-26T19:31:45.177Z,983.76
2017-12-26T19:43:26.052Z,979.38
2017-12-26T19:53:52.548Z,982.97
2017-12-26T20:04:20.818Z,984.26
2017-12-26T20:14:47.674Z,983.89
2017-12-26T20:35:41.853Z,981.87
2017-12-26T20:56:37.169Z,982.02
2017-12-26T21:07:06.169Z,981.65
2017-12-26T21:17:31.695Z,981.78
2017-12-26T21:27:59.784Z,981.70
2017-12-26T21:38:27.468Z,981.56
2017-12-26T21:48:55.043Z,981.60
2017-12-26T21:59:22.432Z,981.31
2017-12-26T22:09:50.002Z,981.11
2017-12-26T22:20:18.630Z,980.74
2017-12-26T22:30:45.427Z,981.84
2017-12-26T22:41:12.739Z,980.45
2017-12-26T22:51:40.231Z,979.78
2017-12-26T23:02:07.574Z,980.15
2017-12-26T23:12:35.124Z,980.42
2017-12-26T23:23:02.383Z,980.62
2017-12-26T23:33:29.821Z,979.57
2017-12-26T23:43:57.082Z,979.12
2017-12-26T23:54:24.332Z,979.54
